createdAt,value
2018-09-22T00:01:32.640Z,58.17
2018-09-22T00:04:00.949Z,57.18
2018-09-22T00:06:29.250Z,58.46
2018-09-22T00:08:57.506Z,57.73
2018-09-22T00:11:25.803Z,57.34
2018-09-22T00:13:54.087Z,57.44
2018-09-22T00:16:22.492Z,57.20
2018-09-22T00:18:50.786Z,57.40
2018-09-22T00:21:19.067Z,58.73
2018-09-22T00:23:47.340Z,58.87
2018-09-22T00:26:15.667Z,58.19
2018-09-22T00:28:43.935Z,58.60
2018-09-22T00:31:12.319Z,58.29
2018-09-22T00:33:40.617Z,57.73
2018-09-22T00:36:08.878Z,57.92
2018-09-22T00:38:37.498Z,59.27
2018-09-22T00:41:05.843Z,58.12
2018-09-22T00:43:34.135Z,58.10
2018-09-22T00:46:02.479Z,58.84
2018-09-22T00:48:30.994Z,58.03
2018-09-22T00:50:59.322Z,58.06
2018-09-22T00:53:27.949Z,58.56
2018-09-22T00:55:56.380Z,58.33
2018-09-22T00:58:25.187Z,58.56
2018-09-22T01:00:53.790Z,58.46
2018-09-22T01:03:22.291Z,58.41
2018-09-22T01:05:50.580Z,58.06
2018-09-22T01:08:18.955Z,58.96
2018-09-22T01:10:47.868Z,58.51
2018-09-22T01:13:16.326Z,58.57
2018-09-22T01:15:44.622Z,59.05
2018-09-22T01:18:12.983Z,58.55
2018-09-22T01:20:41.986Z,59.35
2018-09-22T01:23:10.578Z,58.67
2018-09-22T01:25:39.124Z,58.63
2018-09-22T01:28:07.543Z,58.16
2018-09-22T01:30:36.234Z,58.96
2018-09-22T01:33:04.880Z,58.14
2018-09-22T01:35:33.231Z,59.31
2018-09-22T01:38:01.761Z,59.20
2018-09-22T01:40:30.242Z,59.05
2018-09-22T01:42:58.899Z,59.83
2018-09-22T01:45:27.237Z,59.62
2018-09-22T01:47:55.737Z,60.16
2018-09-22T01:50:24.011Z,60.33
2018-09-22T01:52:52.410Z,59.98
2018-09-22T01:55:20.901Z,59.25
2018-09-22T01:57:49.372Z,59.24
2018-09-22T02:00:17.969Z,59.14
2018-09-22T02:02:46.571Z,59.90
2018-09-22T02:05:14.942Z,59.83
2018-09-22T02:07:43.371Z,59.54
2018-09-22T02:10:11.651Z,59.17
2018-09-22T02:12:40.038Z,60.09
2018-09-22T02:15:08.405Z,59.37
2018-09-22T02:17:36.688Z,59.43
2018-09-22T02:20:05.459Z,59.67
2018-09-22T02:22:33.761Z,59.65
2018-09-22T02:25:02.339Z,60.00
2018-09-22T02:27:30.859Z,60.00
2018-09-22T02:29:59.149Z,60.41
2018-09-22T02:32:28.461Z,60.28
2018-09-22T02:34:56.878Z,60.44
2018-09-22T02:37:25.175Z,59.58
2018-09-22T02:39:53.453Z,59.73
2018-09-22T02:42:21.758Z,60.15
2018-09-22T02:44:50.023Z,61.28
2018-09-22T02:47:18.308Z,60.16
2018-09-22T02:49:46.603Z,60.08
2018-09-22T02:52:14.902Z,60.67
2018-09-22T02:54:43.202Z,60.88
2018-09-22T02:57:11.519Z,59.90
2018-09-22T02:59:39.815Z,60.86
2018-09-22T03:02:08.156Z,61.58
2018-09-22T03:04:36.439Z,61.21
2018-09-22T03:07:04.742Z,60.34
2018-09-22T03:09:33.038Z,60.95
2018-09-22T03:12:01.332Z,60.79
2018-09-22T03:14:29.599Z,59.89
2018-09-22T03:16:57.891Z,60.35
2018-09-22T03:19:26.129Z,60.43
2018-09-22T03:21:54.445Z,60.53
2018-09-22T03:24:22.798Z,60.93
2018-09-22T03:26:51.069Z,61.66
2018-09-22T03:29:19.350Z,60.29
2018-09-22T03:31:47.633Z,60.40
2018-09-22T03:34:15.950Z,60.45
2018-09-22T03:36:44.254Z,60.34
2018-09-22T03:39:12.532Z,60.69
2018-09-22T03:41:41.062Z,60.97
2018-09-22T03:44:10.889Z,61.44
2018-09-22T03:46:39.186Z,61.31
2018-09-22T03:49:07.623Z,60.59
2018-09-22T03:51:35.852Z,60.62
2018-09-22T03:54:04.111Z,61.37
2018-09-22T03:56:32.571Z,61.27
2018-09-22T03:59:00.808Z,60.79
2018-09-22T04:01:28.975Z,61.43
2018-09-22T04:03:57.171Z,61.44
2018-09-22T04:06:25.381Z,61.41
2018-09-22T04:08:53.650Z,61.38
2018-09-22T04:11:21.832Z,61.36
2018-09-22T04:13:49.985Z,61.71
2018-09-22T04:16:18.199Z,61.13
2018-09-22T04:18:46.358Z,61.91
2018-09-22T04:21:14.530Z,61.48
2018-09-22T04:23:42.719Z,62.32
2018-09-22T04:26:10.907Z,61.07
2018-09-22T04:28:39.119Z,61.90
2018-09-22T04:31:07.319Z,61.46
2018-09-22T04:33:35.495Z,60.71
2018-09-22T04:36:03.667Z,61.82
2018-09-22T04:38:31.879Z,61.30
2018-09-22T04:41:00.063Z,60.51
2018-09-22T04:43:28.242Z,61.08
2018-09-22T04:45:56.427Z,61.14
2018-09-22T04:48:24.673Z,60.20
2018-09-22T04:50:52.871Z,60.19
2018-09-22T04:53:21.075Z,61.90
2018-09-22T04:55:49.280Z,61.10
2018-09-22T04:58:17.447Z,60.89
2018-09-22T05:00:45.615Z,61.86
2018-09-22T05:03:13.819Z,61.14
2018-09-22T05:05:42.051Z,61.39
2018-09-22T05:08:10.204Z,62.00
2018-09-22T05:10:38.370Z,61.64
2018-09-22T05:13:06.557Z,61.09
2018-09-22T05:15:34.922Z,62.05
2018-09-22T05:18:03.108Z,61.75
2018-09-22T05:20:31.284Z,62.24
2018-09-22T05:22:59.480Z,61.95
2018-09-22T05:25:27.655Z,61.65
2018-09-22T05:27:55.827Z,61.96
2018-09-22T05:30:24.146Z,61.30
2018-09-22T05:32:52.339Z,61.77
2018-09-22T05:35:20.510Z,61.51
2018-09-22T05:37:48.695Z,60.99
2018-09-22T05:40:16.894Z,62.04
2018-09-22T05:42:45.058Z,61.97
2018-09-22T05:45:13.243Z,62.51
2018-09-22T05:47:41.439Z,61.28
2018-09-22T05:50:09.643Z,62.51
2018-09-22T05:52:37.847Z,62.08
2018-09-22T05:55:06.083Z,61.28
2018-09-22T05:57:34.254Z,62.10
2018-09-22T06:00:02.443Z,62.54
2018-09-22T06:02:30.640Z,62.86
2018-09-22T06:04:59.092Z,62.82
2018-09-22T06:07:27.278Z,61.92
2018-09-22T06:09:55.430Z,62.47
2018-09-22T06:12:23.599Z,61.71
2018-09-22T06:14:51.771Z,62.26
2018-09-22T06:17:19.938Z,62.06
2018-09-22T06:19:49.091Z,62.30
2018-09-22T06:22:17.251Z,62.00
2018-09-22T06:24:45.607Z,62.44
2018-09-22T06:27:13.795Z,61.40
2018-09-22T06:29:42.014Z,61.99
2018-09-22T06:32:10.227Z,61.76
2018-09-22T06:34:38.468Z,61.96
2018-09-22T06:37:06.760Z,62.67
2018-09-22T06:39:34.919Z,62.41
2018-09-22T06:42:03.117Z,62.25
2018-09-22T06:44:31.271Z,62.45
2018-09-22T06:46:59.433Z,62.01
2018-09-22T06:49:27.600Z,62.40
2018-09-22T06:51:55.827Z,62.39
2018-09-22T06:54:23.999Z,62.08
2018-09-22T06:56:52.172Z,61.45
2018-09-22T06:59:20.367Z,62.11
2018-09-22T07:01:48.585Z,61.30
2018-09-22T07:04:16.748Z,60.92
2018-09-22T07:06:44.930Z,62.00
2018-09-22T07:09:13.115Z,61.03
2018-09-22T07:11:41.275Z,61.73
2018-09-22T07:14:09.471Z,61.82
2018-09-22T07:16:37.772Z,62.34
2018-09-22T07:19:06.023Z,61.58
2018-09-22T07:21:39.436Z,61.81
2018-09-22T07:24:07.629Z,62.39
2018-09-22T07:26:35.834Z,61.83
2018-09-22T07:29:04.028Z,61.93
2018-09-22T07:31:32.199Z,62.47
2018-09-22T07:34:00.390Z,62.42
2018-09-22T07:36:28.632Z,62.53
2018-09-22T07:38:56.839Z,62.18
2018-09-22T07:41:25.050Z,63.16
2018-09-22T07:43:53.241Z,62.45
2018-09-22T07:46:21.433Z,61.35
2018-09-22T07:48:49.611Z,61.16
2018-09-22T07:51:17.864Z,62.46
2018-09-22T07:53:46.042Z,62.04
2018-09-22T07:56:14.196Z,61.33
2018-09-22T07:58:42.367Z,61.29
2018-09-22T08:01:10.561Z,61.63
2018-09-22T08:03:38.815Z,61.80
2018-09-22T08:06:07.000Z,61.09
2018-09-22T08:08:35.294Z,61.57
2018-09-22T08:11:03.458Z,61.58
2018-09-22T08:13:31.676Z,60.74
2018-09-22T08:15:59.903Z,60.66
2018-09-22T08:18:28.090Z,61.04
2018-09-22T08:20:56.262Z,60.58
2018-09-22T08:23:24.507Z,59.96
2018-09-22T08:25:52.732Z,60.63
2018-09-22T08:28:20.995Z,61.04
2018-09-22T08:30:49.201Z,60.12
2018-09-22T08:33:17.406Z,60.73
2018-09-22T08:35:45.769Z,61.87
2018-09-22T08:38:13.947Z,61.05
2018-09-22T08:40:42.196Z,59.95
2018-09-22T08:43:10.412Z,60.54
2018-09-22T08:45:38.587Z,59.24
2018-09-22T08:48:06.762Z,59.97
2018-09-22T08:50:34.986Z,59.74
2018-09-22T08:53:03.192Z,59.59
2018-09-22T08:55:31.484Z,58.67
2018-09-22T08:57:59.776Z,59.86
2018-09-22T09:00:27.926Z,59.78
2018-09-22T09:02:56.095Z,60.03
2018-09-22T09:05:24.297Z,59.95
2018-09-22T09:07:52.468Z,58.73
2018-09-22T09:10:20.636Z,58.80
2018-09-22T09:12:48.914Z,59.05
2018-09-22T09:15:17.129Z,58.19
2018-09-22T09:17:45.345Z,56.99
2018-09-22T09:20:13.528Z,57.54
2018-09-22T09:22:41.722Z,57.31
2018-09-22T09:25:09.963Z,57.36
2018-09-22T09:27:38.347Z,57.55
2018-09-22T09:30:06.531Z,57.49
2018-09-22T09:32:35.204Z,56.28
2018-09-22T09:35:07.511Z,55.43
2018-09-22T09:37:35.939Z,55.50
2018-09-22T09:40:04.411Z,53.60
2018-09-22T09:42:32.937Z,53.28
2018-09-22T09:45:01.105Z,51.90
2018-09-22T09:47:29.348Z,52.30
2018-09-22T09:49:57.763Z,53.04
2018-09-22T09:52:25.954Z,52.85
2018-09-22T09:54:54.265Z,53.60
2018-09-22T09:57:22.660Z,52.50
2018-09-22T09:59:51.049Z,52.14
2018-09-22T10:02:19.516Z,51.45
2018-09-22T10:04:47.747Z,52.45
2018-09-22T10:07:17.151Z,52.05
2018-09-22T10:09:46.388Z,51.26
2018-09-22T10:12:14.937Z,50.97
2018-09-22T10:14:43.818Z,51.76
2018-09-22T10:17:12.027Z,49.54
2018-09-22T10:19:40.473Z,50.24
2018-09-22T10:22:09.940Z,50.59
2018-09-22T10:24:38.182Z,50.88
2018-09-22T10:27:06.587Z,51.07
2018-09-22T10:29:35.340Z,51.42
2018-09-22T10:32:03.614Z,51.63
2018-09-22T10:34:32.107Z,52.62
2018-09-22T10:37:00.534Z,53.07
2018-09-22T10:39:28.930Z,53.28
2018-09-22T10:41:57.243Z,52.74
2018-09-22T10:44:25.519Z,53.88
2018-09-22T10:46:53.893Z,53.10
2018-09-22T10:49:22.444Z,53.98
2018-09-22T10:51:50.738Z,53.30
2018-09-22T10:54:19.185Z,52.49
2018-09-22T10:56:47.602Z,52.79
2018-09-22T10:59:15.919Z,52.63
2018-09-22T11:01:44.193Z,52.49
2018-09-22T11:04:12.540Z,52.32
2018-09-22T11:06:40.921Z,51.62
2018-09-22T11:09:09.180Z,52.90
2018-09-22T11:11:37.508Z,53.13
2018-09-22T11:14:05.845Z,52.48
2018-09-22T11:16:34.172Z,52.47
2018-09-22T11:19:02.445Z,52.68
2018-09-22T11:21:30.788Z,53.32
2018-09-22T11:23:59.045Z,53.40
2018-09-22T11:26:27.382Z,53.34
2018-09-22T11:28:55.802Z,52.61
2018-09-22T11:31:24.173Z,52.98
2018-09-22T11:33:52.612Z,53.53
2018-09-22T11:36:20.864Z,53.37
2018-09-22T11:38:49.121Z,52.92
2018-09-22T11:41:17.426Z,53.58
2018-09-22T11:43:45.752Z,54.35
2018-09-22T11:46:14.170Z,54.11
2018-09-22T11:48:42.521Z,54.29
2018-09-22T11:51:10.785Z,54.53
2018-09-22T11:53:39.073Z,53.44
2018-09-22T11:56:07.403Z,52.65
2018-09-22T11:58:35.710Z,53.51
2018-09-22T12:01:04.102Z,50.90
2018-09-22T12:03:32.402Z,50.85
2018-09-22T12:06:00.784Z,48.60
2018-09-22T12:08:29.071Z,51.31
2018-09-22T12:10:57.425Z,51.72
2018-09-22T12:13:25.721Z,52.08
2018-09-22T12:15:54.057Z,51.66
2018-09-22T12:18:22.333Z,52.92
2018-09-22T12:20:50.643Z,51.67
2018-09-22T12:23:19.029Z,51.55
2018-09-22T12:25:47.380Z,51.09
2018-09-22T12:28:15.714Z,51.76
2018-09-22T12:30:44.128Z,51.70
2018-09-22T12:33:12.499Z,52.11
2018-09-22T12:35:40.878Z,51.99
2018-09-22T12:38:09.219Z,50.06
2018-09-22T12:40:37.565Z,51.39
2018-09-22T12:43:05.905Z,51.29
2018-09-22T12:45:34.181Z,50.60
2018-09-22T12:48:02.517Z,51.28
2018-09-22T12:50:30.810Z,49.83
2018-09-22T12:52:59.162Z,50.40
2018-09-22T12:55:27.402Z,50.37
2018-09-22T12:57:55.698Z,49.92
2018-09-22T13:00:23.986Z,47.93
2018-09-22T13:02:52.330Z,48.28
2018-09-22T13:05:20.760Z,49.82
2018-09-22T13:07:49.668Z,50.49
2018-09-22T13:10:17.967Z,50.52
2018-09-22T13:12:46.502Z,50.96
2018-09-22T13:15:14.821Z,57.63
2018-09-22T13:17:43.165Z,60.15
2018-09-22T13:20:11.627Z,62.74
2018-09-22T13:22:39.875Z,62.86
2018-09-22T13:25:08.202Z,62.79
2018-09-22T13:27:36.518Z,61.83
2018-09-22T13:30:04.997Z,59.73
2018-09-22T13:32:33.333Z,57.36
2018-09-22T13:35:01.693Z,63.71
2018-09-22T13:37:30.020Z,66.98
2018-09-22T13:39:58.301Z,67.05
2018-09-22T13:42:26.576Z,71.47
2018-09-22T13:44:54.881Z,74.63
2018-09-22T13:47:23.216Z,74.23
2018-09-22T13:49:51.513Z,76.49
2018-09-22T13:52:19.794Z,76.00
2018-09-22T13:54:48.162Z,78.27
2018-09-22T13:57:16.458Z,79.34
2018-09-22T13:59:44.731Z,79.02
2018-09-22T14:02:13.024Z,79.82
2018-09-22T14:04:41.397Z,80.69
2018-09-22T14:07:09.616Z,79.41
2018-09-22T14:09:37.940Z,79.04
2018-09-22T14:12:06.474Z,79.02
2018-09-22T14:14:34.846Z,79.89
2018-09-22T14:17:03.150Z,78.73
2018-09-22T14:19:31.426Z,77.36
2018-09-22T14:21:59.685Z,77.10
2018-09-22T14:24:28.103Z,75.35
2018-09-22T14:26:56.477Z,77.30
2018-09-22T14:29:24.736Z,76.47
2018-09-22T14:31:52.997Z,76.29
2018-09-22T14:34:21.300Z,76.23
2018-09-22T14:36:49.608Z,75.24
2018-09-22T14:39:17.886Z,75.24
2018-09-22T14:41:46.188Z,76.02
2018-09-22T14:44:14.450Z,75.06
2018-09-22T14:46:42.742Z,74.59
2018-09-22T14:49:11.106Z,74.44
2018-09-22T14:51:39.465Z,75.23
2018-09-22T14:54:07.743Z,76.71
2018-09-22T14:56:35.987Z,75.11
2018-09-22T14:59:04.305Z,75.65
2018-09-22T15:01:32.593Z,75.97
2018-09-22T15:04:00.959Z,76.94
2018-09-22T15:06:29.218Z,75.31
2018-09-22T15:08:57.487Z,76.46
2018-09-22T15:11:25.751Z,75.21
2018-09-22T15:13:54.125Z,75.57
2018-09-22T15:16:22.411Z,76.88
2018-09-22T15:18:50.945Z,75.38
2018-09-22T15:21:19.258Z,75.56
2018-09-22T15:23:47.608Z,75.79
2018-09-22T15:26:15.864Z,76.37
2018-09-22T15:28:44.202Z,77.80
2018-09-22T15:31:12.485Z,77.03
2018-09-22T15:33:40.897Z,76.87
2018-09-22T15:36:09.172Z,76.84
2018-09-22T15:38:37.575Z,76.98
2018-09-22T15:41:05.928Z,74.41
2018-09-22T15:43:34.653Z,75.60
2018-09-22T15:46:02.984Z,76.81
2018-09-22T15:48:31.364Z,74.97
2018-09-22T15:50:59.594Z,76.63
2018-09-22T15:53:27.876Z,76.79
2018-09-22T15:55:56.249Z,76.37
2018-09-22T15:58:24.514Z,75.62
2018-09-22T16:00:52.877Z,76.26
2018-09-22T16:03:21.213Z,77.01
2018-09-22T16:05:49.511Z,76.72
2018-09-22T16:08:17.853Z,76.82
2018-09-22T16:10:46.134Z,76.35
2018-09-22T16:13:14.560Z,76.68
2018-09-22T16:15:42.857Z,77.13
2018-09-22T16:18:11.138Z,78.39
2018-09-22T16:20:39.446Z,79.05
2018-09-22T16:23:07.921Z,77.14
2018-09-22T16:25:36.333Z,77.97
2018-09-22T16:28:04.583Z,77.76
2018-09-22T16:30:32.899Z,77.64
2018-09-22T16:33:01.286Z,77.96
2018-09-22T16:35:29.761Z,78.49
2018-09-22T16:37:58.141Z,79.12
2018-09-22T16:40:26.464Z,78.89
2018-09-22T16:42:54.785Z,80.02
2018-09-22T16:45:23.094Z,78.84
2018-09-22T16:47:51.451Z,78.90
2018-09-22T16:50:19.860Z,77.56
2018-09-22T16:52:48.261Z,78.61
2018-09-22T16:55:16.537Z,78.17
2018-09-22T16:57:44.827Z,77.64
2018-09-22T17:00:13.122Z,77.86
2018-09-22T17:02:41.520Z,77.94
2018-09-22T17:05:09.890Z,77.72
2018-09-22T17:07:38.199Z,78.83
2018-09-22T17:10:06.546Z,79.13
2018-09-22T17:12:34.855Z,79.68
2018-09-22T17:15:03.196Z,79.75
2018-09-22T17:17:31.634Z,80.41
2018-09-22T17:20:00.010Z,78.97
2018-09-22T17:22:28.321Z,79.18
2018-09-22T17:24:56.597Z,79.04
2018-09-22T17:27:24.950Z,79.97
2018-09-22T17:29:53.295Z,80.32
2018-09-22T17:32:21.637Z,80.53
2018-09-22T17:34:49.996Z,79.42
2018-09-22T17:37:18.353Z,79.22
2018-09-22T17:39:46.691Z,79.83
2018-09-22T17:42:15.055Z,79.69
2018-09-22T17:44:43.413Z,78.89
2018-09-22T17:47:11.812Z,79.28
2018-09-22T17:49:40.077Z,78.31
2018-09-22T17:52:08.385Z,77.90
2018-09-22T17:54:36.661Z,77.35
2018-09-22T17:57:04.969Z,77.05
2018-09-22T17:59:33.307Z,77.97
2018-09-22T18:02:01.618Z,79.13
2018-09-22T18:04:29.929Z,78.83
2018-09-22T18:06:58.385Z,79.18
2018-09-22T18:09:26.831Z,79.79
2018-09-22T18:11:55.214Z,78.68
2018-09-22T18:14:23.530Z,78.69
2018-09-22T18:16:51.958Z,78.48
2018-09-22T18:19:20.264Z,78.27
2018-09-22T18:21:48.640Z,78.11
2018-09-22T18:24:17.003Z,77.56
2018-09-22T18:26:45.409Z,77.59
2018-09-22T18:29:13.710Z,78.72
2018-09-22T18:31:42.010Z,78.62
2018-09-22T18:34:10.386Z,78.04
2018-09-22T18:36:38.754Z,78.35
2018-09-22T18:39:07.923Z,78.88
2018-09-22T18:41:36.489Z,78.28
2018-09-22T18:44:04.960Z,79.31
2018-09-22T18:46:33.273Z,78.31
2018-09-22T18:49:01.614Z,77.80
2018-09-22T18:51:30.018Z,77.26
2018-09-22T18:53:58.422Z,77.93
2018-09-22T18:56:26.749Z,79.24
2018-09-22T18:58:55.016Z,78.94
2018-09-22T19:01:23.320Z,79.82
2018-09-22T19:03:51.613Z,79.55
2018-09-22T19:06:19.985Z,79.13
2018-09-22T19:08:48.567Z,79.53
2018-09-22T19:11:16.858Z,80.24
2018-09-22T19:13:52.110Z,80.12
2018-09-22T19:16:26.194Z,80.86
2018-09-22T19:19:01.761Z,79.97
2018-09-22T19:21:39.350Z,80.19
2018-09-22T19:24:13.069Z,79.88
2018-09-22T19:26:44.841Z,79.69
2018-09-22T19:29:51.715Z,79.87
2018-09-22T19:32:23.682Z,79.38
2018-09-22T19:34:57.058Z,80.14
2018-09-22T19:37:35.982Z,79.71
2018-09-22T19:40:16.193Z,80.05
2018-09-22T19:42:49.846Z,79.08
2018-09-22T19:45:25.853Z,79.52
2018-09-22T19:47:58.417Z,79.69
2018-09-22T19:50:39.504Z,79.32
2018-09-22T19:53:09.660Z,80.14
2018-09-22T19:55:41.481Z,80.45
2018-09-22T19:58:09.928Z,79.80
2018-09-22T20:00:38.150Z,79.87
2018-09-22T20:03:06.642Z,80.54
2018-09-22T20:05:35.069Z,80.49
2018-09-22T20:08:04.192Z,80.58
2018-09-22T20:10:32.832Z,80.46
2018-09-22T20:13:01.112Z,81.14
2018-09-22T20:15:29.423Z,80.04
2018-09-22T20:17:57.903Z,80.76
2018-09-22T20:20:26.288Z,80.80
2018-09-22T20:22:54.633Z,80.74
2018-09-22T20:25:22.989Z,80.74
2018-09-22T20:27:51.510Z,80.78
2018-09-22T20:30:20.216Z,80.06
2018-09-22T20:32:48.727Z,80.10
2018-09-22T20:35:17.374Z,80.55
2018-09-22T20:37:46.084Z,80.73
2018-09-22T20:40:14.478Z,81.34
2018-09-22T20:42:43.003Z,81.83
2018-09-22T20:45:11.340Z,81.45
2018-09-22T20:47:40.514Z,81.81
2018-09-22T20:50:15.652Z,81.79
2018-09-22T20:52:44.425Z,80.70
2018-09-22T20:55:12.901Z,80.62
2018-09-22T20:57:41.278Z,80.45
2018-09-22T21:00:11.301Z,80.55
2018-09-22T21:02:39.974Z,79.78
2018-09-22T21:05:08.801Z,80.36
2018-09-22T21:07:37.543Z,79.95
2018-09-22T21:10:06.757Z,81.00
2018-09-22T21:12:35.635Z,80.86
2018-09-22T21:15:04.585Z,81.24
2018-09-22T21:17:33.320Z,80.63
2018-09-22T21:20:01.805Z,79.99
2018-09-22T21:22:30.055Z,79.66
2018-09-22T21:24:58.324Z,80.35
2018-09-22T21:27:26.887Z,79.44
2018-09-22T21:29:55.308Z,78.60
2018-09-22T21:32:23.914Z,78.62
2018-09-22T21:34:52.576Z,79.72
2018-09-22T21:37:21.145Z,79.37
2018-09-22T21:39:49.781Z,80.71
2018-09-22T21:42:19.194Z,79.37
2018-09-22T21:44:47.817Z,79.31
2018-09-22T21:47:16.516Z,79.14
2018-09-22T21:49:44.801Z,79.36
2018-09-22T21:52:13.359Z,80.57
2018-09-22T21:54:41.926Z,80.50
2018-09-22T21:57:10.451Z,80.57
2018-09-22T21:59:38.778Z,80.47
2018-09-22T22:02:07.617Z,80.40
2018-09-22T22:04:35.921Z,81.23
2018-09-22T22:07:04.614Z,80.45
2018-09-22T22:09:32.900Z,80.06
2018-09-22T22:12:01.382Z,80.86
2018-09-22T22:14:29.978Z,80.01
2018-09-22T22:16:58.538Z,81.06
2018-09-22T22:19:27.196Z,80.84
2018-09-22T22:21:55.579Z,80.48
2018-09-22T22:24:24.068Z,81.03
2018-09-22T22:26:52.692Z,79.63
2018-09-22T22:29:21.666Z,80.13
2018-09-22T22:31:49.975Z,80.13
2018-09-22T22:34:18.660Z,80.48
2018-09-22T22:36:47.902Z,80.30
2018-09-22T22:39:16.652Z,80.89
2018-09-22T22:41:45.298Z,80.49
2018-09-22T22:44:13.563Z,80.40
2018-09-22T22:46:41.827Z,80.39
2018-09-22T22:49:10.145Z,79.66
2018-09-22T22:51:38.460Z,80.37
2018-09-22T22:54:06.806Z,80.18
2018-09-22T22:56:35.094Z,79.92
2018-09-22T22:59:05.342Z,79.87
2018-09-22T23:01:34.229Z,80.13
2018-09-22T23:04:02.831Z,80.04
2018-09-22T23:06:31.100Z,79.75
2018-09-22T23:08:59.353Z,79.72
2018-09-22T23:11:27.594Z,81.02
2018-09-22T23:13:55.878Z,80.92
2018-09-22T23:16:24.197Z,80.04
2018-09-22T23:18:52.495Z,79.80
2018-09-22T23:21:21.015Z,80.03
2018-09-22T23:23:50.072Z,80.09
2018-09-22T23:26:19.041Z,80.65
2018-09-22T23:28:47.446Z,79.63
2018-09-22T23:31:15.706Z,80.56
2018-09-22T23:33:44.027Z,80.47
2018-09-22T23:36:12.430Z,79.47
2018-09-22T23:38:41.091Z,79.33
2018-09-22T23:41:09.398Z,80.36
2018-09-22T23:43:37.660Z,79.40
2018-09-22T23:46:05.966Z,80.43
2018-09-22T23:48:34.507Z,80.24
2018-09-22T23:51:03.094Z,80.08
2018-09-22T23:53:31.703Z,79.38
2018-09-22T23:55:59.975Z,80.68
2018-09-22T23:58:28.238Z,79.72
